Time;durP1;ratioP1;P1;durP2;ratioP2;P2;SDS_P1;SDS_P2;PMS_P1;PMS_P2;Temp;Humidity;BMP_temperature;BMP_pressure;BME280_temperature;BME280_humidity;BME280_pressure;Samples;Min_cycle;Max_cycle;Signal;HPM_P1;HPM_P2
2022/10/19 00:01:52;;;;;;;;;;;;;;;;;;4985936;28;19917;-61
2022/10/19 00:04:20;;;;;;;;;;;;;;;;;;4986396;28;19918;-61
2022/10/19 00:06:46;;;;;;;;;;;;;;;;;;4984937;28;19932;-62
2022/10/19 00:09:11;;;;;;;;;;;;;;;;;;4988227;28;19937;-61
2022/10/19 00:11:36;;;;;;;;;;;;;;;;;;4978863;28;19925;-61
2022/10/19 00:14:02;;;;;;;;;;;;;;;;;;4985771;28;19928;-61
2022/10/19 00:16:31;;;;;;;;;;;;;;;;;;4985365;28;20422;-61
2022/10/19 00:18:57;;;;;;;;;;;;;;;;;;4986876;28;19924;-61
2022/10/19 00:21:24;;;;;;;;;;;;;;;;;;4985354;28;19982;-61
2022/10/19 00:23:52;;;;;;;;;;;;;;;;;;4984334;28;19921;-61
2022/10/19 00:26:18;;;;;;;;;;;;;;;;;;4987334;28;19924;-61
2022/10/19 00:28:43;;;;;;;;;;;;;;;;;;4983809;28;19921;-61
2022/10/19 00:31:11;;;;;;;;;;;;;;;;;;4983720;28;19917;-61
2022/10/19 00:33:38;;;;;;;;;;;;;;;;;;4980394;28;19963;-61
2022/10/19 00:36:06;;;;;;;;;;;;;;;;;;4984668;28;19976;-62
2022/10/19 00:38:31;;;;;;;;;;;;;;;;;;4985554;28;20536;-61
2022/10/19 00:40:59;;;;;;;;;;;;;;;;;;4983530;28;19973;-61
2022/10/19 00:43:24;;;;;;;;;;;;;;;;;;4984266;28;20379;-61
2022/10/19 00:45:52;;;;;;;;;;;;;;;;;;4978251;28;19921;-61
2022/10/19 00:48:22;;;;;;;;;;;;;;;;;;4985411;28;20012;-62
2022/10/19 00:50:47;;;;;;;;;;;;;;;;;;4988570;28;19953;-61
2022/10/19 00:53:17;;;;;;;;;;;;;;;;;;4982964;28;19936;-61
2022/10/19 00:55:47;;;;;;;;;;;;;;;;;;4971892;28;20348;-62
2022/10/19 00:58:13;;;;;;;;;;;;;;;;;;4987530;28;20028;-62
2022/10/19 01:00:41;;;;;;;;;;;;;;;;;;4983109;28;19917;-61
2022/10/19 01:03:06;;;;;;;;;;;;;;;;;;4984161;28;20582;-61
2022/10/19 01:05:33;;;;;;;;;;;;;;;;;;4964200;28;21769;-61
2022/10/19 01:07:59;;;;;;;;;;;;;;;;;;4978513;28;19918;-61
2022/10/19 01:10:27;;;;;;;;;;;;;;;;;;4987913;28;19975;-62
2022/10/19 01:12:55;;;;;;;;;;;;;;;;;;4979106;28;19935;-61
2022/10/19 01:15:20;;;;;;;;;;;;;;;;;;4986312;28;19937;-62
2022/10/19 01:17:47;;;;;;;;;;;;;;;;;;4985813;28;20602;-62
2022/10/19 01:20:13;;;;;;;;;;;;;;;;;;4984388;28;19971;-61
2022/10/19 01:22:39;;;;;;;;;;;;;;;;;;4986096;28;19926;-61
2022/10/19 01:25:06;;;;;;;;;;;;;;;;;;4986342;28;19925;-61
2022/10/19 01:27:32;;;;;;;;;;;;;;;;;;4984221;28;20336;-61
2022/10/19 01:29:57;;;;;;;;;;;;;;;;;;4961329;28;19927;-62
2022/10/19 01:32:24;;;;;;;;;;;;;;;;;;4968125;28;19953;-62
2022/10/19 01:34:50;;;;;;;;;;;;;;;;;;4968324;28;20495;-62
2022/10/19 01:37:17;;;;;;;;;;;;;;;;;;4984654;28;20599;-62
2022/10/19 01:39:42;;;;;;;;;;;;;;;;;;4983428;28;20008;-62
2022/10/19 01:42:08;;;;;;;;;;;;;;;;;;4967438;28;19921;-62
2022/10/19 01:44:36;;;;;;;;;;;;;;;;;;4982168;28;19922;-61
2022/10/19 01:47:01;;;;;;;;;;;;;;;;;;4986225;28;20384;-61
2022/10/19 01:49:26;;;;;;;;;;;;;;;;;;4960804;28;20393;-61
2022/10/19 01:51:52;;;;;;;;;;;;;;;;;;4983482;28;19964;-61
2022/10/19 01:54:17;;;;;;;;;;;;;;;;;;4987775;28;20416;-61
2022/10/19 01:56:45;;;;;;;;;;;;;;;;;;4984119;28;20311;-60
2022/10/19 01:59:11;;;;;;;;;;;;;;;;;;4984409;28;19921;-60
2022/10/19 02:01:39;;;;;;;;;;;;;;;;;;4979372;28;20396;-61
2022/10/19 02:04:04;;;;;;;;;;;;;;;;;;4984153;28;20895;-62
2022/10/19 02:06:32;;;;;;;;;;;;;;;;;;4968058;28;19921;-61
2022/10/19 02:09:00;;;;;;;;;;;;;;;;;;4978664;28;20426;-61
2022/10/19 02:11:25;;;;;;;;;;;;;;;;;;4986652;28;19944;-61
2022/10/19 02:13:51;;;;;;;;;;;;;;;;;;4997557;28;19925;-62
2022/10/19 02:16:18;;;;;;;;;;;;;;;;;;4985323;28;19991;-62
2022/10/19 02:18:46;;;;;;;;;;;;;;;;;;4984802;28;20714;-62
2022/10/19 02:21:14;;;;;;;;;;;;;;;;;;4983700;28;20839;-61
2022/10/19 02:23:39;;;;;;;;;;;;;;;;;;4962832;28;19922;-61
2022/10/19 02:26:07;;;;;;;;;;;;;;;;;;4977098;28;20065;-61
2022/10/19 02:28:32;;;;;;;;;;;;;;;;;;4962330;28;20014;-61
2022/10/19 02:31:00;;;;;;;;;;;;;;;;;;4979654;28;20456;-62
2022/10/19 02:33:28;;;;;;;;;;;;;;;;;;4983476;28;20327;-61
2022/10/19 02:35:56;;;;;;;;;;;;;;;;;;4985301;28;19917;-61
2022/10/19 02:38:21;;;;;;;;;;;;;;;;;;4984116;28;19928;-61
2022/10/19 02:40:49;;;;;;;;;;;;;;;;;;4986971;28;19921;-61
2022/10/19 02:43:18;;;;;;;;;;;;;;;;;;4977466;28;20040;-61
2022/10/19 02:45:48;;;;;;;;;;;;;;;;;;5001395;28;19918;-61
2022/10/19 02:48:13;;;;;;;;;;;;;;;;;;4981601;28;20373;-61
2022/10/19 02:50:41;;;;;;;;;;;;;;;;;;4989852;28;20158;-61
2022/10/19 02:53:06;;;;;;;;;;;;;;;;;;4989028;28;19928;-61
2022/10/19 02:55:34;;;;;;;;;;;;;;;;;;4947526;28;20394;-61
2022/10/19 02:58:00;;;;;;;;;;;;;;;;;;4950120;28;20013;-61
2022/10/19 03:00:25;;;;;;;;;;;;;;;;;;4947390;28;20580;-61
2022/10/19 03:02:55;;;;;;;;;;;;;;;;;;4951033;28;19926;-61
2022/10/19 03:05:23;;;;;;;;;;;;;;;;;;4959968;28;19933;-61
2022/10/19 03:07:50;;;;;;;;;;;;;;;;;;4933027;28;19977;-61
2022/10/19 03:10:16;;;;;;;;;;;;;;;;;;4947578;28;19922;-61
2022/10/19 03:12:41;;;;;;;;;;;;;;;;;;4963975;28;19968;-61
2022/10/19 03:15:09;;;;;;;;;;;;;;;;;;4956952;28;19945;-61
2022/10/19 03:17:37;;;;;;;;;;;;;;;;;;4949220;28;19925;-61
2022/10/19 03:20:02;;;;;;;;;;;;;;;;;;4949436;28;19926;-61
2022/10/19 03:22:27;;;;;;;;;;;;;;;;;;4949529;28;19918;-62
2022/10/19 03:24:55;;;;;;;;;;;;;;;;;;4949305;28;19918;-61
2022/10/19 03:27:21;;;;;;;;;;;;;;;;;;4934664;28;20436;-61
2022/10/19 03:29:46;;;;;;;;;;;;;;;;;;4941387;28;19918;-62
2022/10/19 03:32:13;;;;;;;;;;;;;;;;;;4934426;28;19923;-61
2022/10/19 03:34:39;;;;;;;;;;;;;;;;;;4940964;28;20008;-61
2022/10/19 03:37:07;;;;;;;;;;;;;;;;;;4950095;28;20346;-61
2022/10/19 03:39:36;;;;;;;;;;;;;;;;;;4948441;28;19918;-61
2022/10/19 03:42:01;;;;;;;;;;;;;;;;;;4957803;28;19929;-62
2022/10/19 03:44:26;;;;;;;;;;;;;;;;;;4946448;28;19933;-61
2022/10/19 03:46:54;;;;;;;;;;;;;;;;;;4948991;28;19918;-61
2022/10/19 03:52:35;;;;;;;;;;;;;;;;;;4948562;28;20515;-61
2022/10/19 03:55:01;;;;;;;;;;;;;;;;;;4973035;28;19929;-61
2022/10/19 03:57:26;;;;;;;;;;;;;;;;;;4987386;28;19922;-61
2022/10/19 03:59:51;;;;;;;;;;;;;;;;;;4985945;28;19921;-61
2022/10/19 04:02:19;;;;;;;;;;;;;;;;;;4986436;28;19975;-62
2022/10/19 04:04:46;;;;;;;;;;;;;;;;;;4963819;28;19922;-61
2022/10/19 04:07:14;;;;;;;;;;;;;;;;;;4986261;28;19918;-62
2022/10/19 04:09:39;;;;;;;;;;;;;;;;;;4987198;28;19917;-61
2022/10/19 04:12:04;;;;;;;;;;;;;;;;;;4986534;28;20000;-61
2022/10/19 04:14:33;;;;;;;;;;;;;;;;;;4986758;28;20008;-61
2022/10/19 04:16:58;;;;;;;;;;;;;;;;;;4964681;28;20060;-61
2022/10/19 04:19:24;;;;;;;;;;;;;;;;;;4987226;28;19925;-62
2022/10/19 04:21:52;;;;;;;;;;;;;;;;;;4986213;28;19917;-62
2022/10/19 04:24:18;;;;;;;;;;;;;;;;;;4978637;28;19929;-61
2022/10/19 04:26:43;;;;;;;;;;;;;;;;;;4985387;28;19943;-62
2022/10/19 04:29:11;;;;;;;;;;;;;;;;;;4984800;28;20543;-62
2022/10/19 04:31:36;;;;;;;;;;;;;;;;;;4979895;28;20013;-62
2022/10/19 04:34:01;;;;;;;;;;;;;;;;;;4972333;28;19929;-61
2022/10/19 04:36:26;;;;;;;;;;;;;;;;;;4968608;28;20460;-62
2022/10/19 04:38:52;;;;;;;;;;;;;;;;;;4986746;28;19917;-62
2022/10/19 04:41:18;;;;;;;;;;;;;;;;;;4984884;28;20060;-62
2022/10/19 04:43:46;;;;;;;;;;;;;;;;;;4985001;28;19949;-62
2022/10/19 04:46:31;;;;;;;;;;;;;;;;;;4949881;28;19922;-62
2022/10/19 04:48:56;;;;;;;;;;;;;;;;;;4952019;28;20180;-61
2022/10/19 04:51:22;;;;;;;;;;;;;;;;;;4963692;28;20372;-62
2022/10/19 04:53:47;;;;;;;;;;;;;;;;;;4964565;28;19930;-61
2022/10/19 04:56:12;;;;;;;;;;;;;;;;;;4949785;28;19961;-62
2022/10/19 04:58:38;;;;;;;;;;;;;;;;;;4947732;28;20675;-61
2022/10/19 05:01:03;;;;;;;;;;;;;;;;;;4930350;28;20021;-62
2022/10/19 05:03:31;;;;;;;;;;;;;;;;;;4946521;28;19918;-62
2022/10/19 05:05:56;;;;;;;;;;;;;;;;;;4945299;28;19922;-62
2022/10/19 05:08:24;;;;;;;;;;;;;;;;;;4947501;28;19914;-62
2022/10/19 05:10:49;;;;;;;;;;;;;;;;;;4933419;28;19925;-62
2022/10/19 05:13:14;;;;;;;;;;;;;;;;;;4946060;28;19926;-62
2022/10/19 05:15:39;;;;;;;;;;;;;;;;;;4947523;28;19922;-62
2022/10/19 05:18:05;;;;;;;;;;;;;;;;;;4980996;28;19918;-62
2022/10/19 05:20:33;;;;;;;;;;;;;;;;;;4972548;28;20856;-63
2022/10/19 05:22:58;;;;;;;;;;;;;;;;;;4986052;28;20817;-62
2022/10/19 05:25:23;;;;;;;;;;;;;;;;;;4985370;28;19917;-62
2022/10/19 05:27:49;;;;;;;;;;;;;;;;;;4987345;28;19984;-62
2022/10/19 05:30:14;;;;;;;;;;;;;;;;;;4984163;28;19944;-63
2022/10/19 05:32:40;;;;;;;;;;;;;;;;;;4985508;28;20941;-62
2022/10/19 05:35:08;;;;;;;;;;;;;;;;;;4985949;28;19921;-62
2022/10/19 05:37:33;;;;;;;;;;;;;;;;;;4986116;28;20281;-62
2022/10/19 05:39:58;;;;;;;;;;;;;;;;;;4986430;28;19960;-62
2022/10/19 05:42:24;;;;;;;;;;;;;;;;;;4986339;28;19917;-62
2022/10/19 05:44:52;;;;;;;;;;;;;;;;;;4983663;28;20114;-62
2022/10/19 05:47:17;;;;;;;;;;;;;;;;;;4985339;28;20399;-62
2022/10/19 05:49:42;;;;;;;;;;;;;;;;;;4983913;28;19914;-62
2022/10/19 05:52:08;;;;;;;;;;;;;;;;;;4984042;28;20000;-64
2022/10/19 05:54:34;;;;;;;;;;;;;;;;;;4978426;28;19925;-61
2022/10/19 05:57:00;;;;;;;;;;;;;;;;;;4978689;28;20360;-62
2022/10/19 05:59:25;;;;;;;;;;;;;;;;;;4984929;28;20016;-61
2022/10/19 06:01:50;;;;;;;;;;;;;;;;;;4978692;28;20407;-62
2022/10/19 06:04:16;;;;;;;;;;;;;;;;;;4983591;28;19932;-62
2022/10/19 06:06:44;;;;;;;;;;;;;;;;;;4984034;28;19928;-63
2022/10/19 06:09:12;;;;;;;;;;;;;;;;;;4987363;28;19918;-63
2022/10/19 06:11:40;;;;;;;;;;;;;;;;;;4984305;28;19997;-62
2022/10/19 06:14:05;;;;;;;;;;;;;;;;;;4985348;28;19951;-63
2022/10/19 06:16:30;;;;;;;;;;;;;;;;;;4982213;28;19928;-62
2022/10/19 06:18:58;;;;;;;;;;;;;;;;;;4984115;28;20033;-62
2022/10/19 06:21:23;;;;;;;;;;;;;;;;;;4982345;28;19968;-62
2022/10/19 06:23:49;;;;;;;;;;;;;;;;;;4981108;28;20710;-62
2022/10/19 06:26:19;;;;;;;;;;;;;;;;;;4982485;28;20444;-62
2022/10/19 06:28:46;;;;;;;;;;;;;;;;;;4985743;28;19960;-61
2022/10/19 06:31:12;;;;;;;;;;;;;;;;;;4983913;28;20051;-62
2022/10/19 06:33:39;;;;;;;;;;;;;;;;;;4978108;28;20050;-63
2022/10/19 06:36:07;;;;;;;;;;;;;;;;;;4982872;28;20355;-63
2022/10/19 06:38:32;;;;;;;;;;;;;;;;;;4988168;28;19917;-62
2022/10/19 06:40:58;;;;;;;;;;;;;;;;;;4983700;28;19928;-63
2022/10/19 06:43:26;;;;;;;;;;;;;;;;;;4983436;28;20572;-64
2022/10/19 06:45:51;;;;;;;;;;;;;;;;;;4983600;28;19921;-62
2022/10/19 06:48:17;;;;;;;;;;;;;;;;;;4985291;28;20061;-62
2022/10/19 06:50:42;;;;;;;;;;;;;;;;;;4986106;28;19922;-63
2022/10/19 06:53:08;;;;;;;;;;;;;;;;;;4985125;28;19922;-62
2022/10/19 06:55:34;;;;;;;;;;;;;;;;;;4983572;28;19936;-62
2022/10/19 06:58:02;;;;;;;;;;;;;;;;;;4983434;28;19951;-64
2022/10/19 07:00:27;;;;;;;;;;;;;;;;;;4982801;28;20494;-61
2022/10/19 07:02:53;;;;;;;;;;;;;;;;;;4984297;28;19917;-63
2022/10/19 07:05:18;;;;;;;;;;;;;;;;;;4982911;28;20019;-62
2022/10/19 07:07:46;;;;;;;;;;;;;;;;;;4984832;28;19968;-62
2022/10/19 07:10:14;;;;;;;;;;;;;;;;;;4985085;28;20012;-62
2022/10/19 07:12:39;;;;;;;;;;;;;;;;;;4987433;28;19928;-62
2022/10/19 07:15:04;;;;;;;;;;;;;;;;;;4984665;28;19921;-62
2022/10/19 07:17:30;;;;;;;;;;;;;;;;;;4962824;28;19924;-62
2022/10/19 07:19:55;;;;;;;;;;;;;;;;;;4982729;28;20826;-62
2022/10/19 07:22:21;;;;;;;;;;;;;;;;;;4982342;28;19918;-62
2022/10/19 07:24:46;;;;;;;;;;;;;;;;;;4966646;28;19926;-62
2022/10/19 07:27:12;;;;;;;;;;;;;;;;;;4982252;28;19960;-63
2022/10/19 07:29:37;;;;;;;;;;;;;;;;;;4984597;28;19921;-62
2022/10/19 07:32:02;;;;;;;;;;;;;;;;;;4986784;28;20332;-62
2022/10/19 07:34:28;;;;;;;;;;;;;;;;;;4987092;28;19921;-62
2022/10/19 07:36:53;;;;;;;;;;;;;;;;;;4980650;28;19928;-62
2022/10/19 07:39:19;;;;;;;;;;;;;;;;;;4985186;28;20012;-62
2022/10/19 07:41:47;;;;;;;;;;;;;;;;;;4987991;28;19918;-62
2022/10/19 07:44:12;;;;;;;;;;;;;;;;;;4985750;28;19933;-62
2022/10/19 07:46:37;;;;;;;;;;;;;;;;;;4972893;28;19917;-62
2022/10/19 07:49:03;;;;;;;;;;;;;;;;;;4987997;28;19921;-62
2022/10/19 07:51:30;;;;;;;;;;;;;;;;;;4984798;28;21684;-62
2022/10/19 07:53:58;;;;;;;;;;;;;;;;;;4987883;28;19933;-63
2022/10/19 07:56:24;;;;;;;;;;;;;;;;;;4987570;28;19983;-62
2022/10/19 07:58:49;;;;;;;;;;;;;;;;;;4986272;28;19988;-62
2022/10/19 08:01:17;;;;;;;;;;;;;;;;;;4986067;28;20365;-62
2022/10/19 08:03:43;;;;;;;;;;;;;;;;;;4986237;28;20011;-62
2022/10/19 08:06:08;;;;;;;;;;;;;;;;;;4986267;28;19979;-62
2022/10/19 08:08:33;;;;;;;;;;;;;;;;;;4986499;28;19926;-62
2022/10/19 08:10:58;;;;;;;;;;;;;;;;;;4980221;28;20385;-61
2022/10/19 08:13:23;;;;;;;;;;;;;;;;;;4985073;28;20557;-61
2022/10/19 08:15:51;;;;;;;;;;;;;;;;;;4985916;28;19964;-62
2022/10/19 08:18:17;;;;;;;;;;;;;;;;;;4987291;28;20023;-61
2022/10/19 08:20:42;;;;;;;;;;;;;;;;;;4973026;28;20344;-61
2022/10/19 08:23:12;;;;;;;;;;;;;;;;;;4984331;28;20032;-60
2022/10/19 08:25:40;;;;;;;;;;;;;;;;;;4987378;28;19926;-63
2022/10/19 08:28:05;;;;;;;;;;;;;;;;;;4984434;28;19964;-63
2022/10/19 08:30:33;;;;;;;;;;;;;;;;;;4986403;28;19964;-63
2022/10/19 08:32:58;;;;;;;;;;;;;;;;;;4985757;28;19922;-63
2022/10/19 08:35:24;;;;;;;;;;;;;;;;;;4984739;28;20057;-63
2022/10/19 08:37:54;;;;;;;;;;;;;;;;;;4987389;28;20598;-62
2022/10/19 08:40:19;;;;;;;;;;;;;;;;;;4987334;28;19941;-62
2022/10/19 08:42:47;;;;;;;;;;;;;;;;;;4962936;28;20357;-62
2022/10/19 08:45:15;;;;;;;;;;;;;;;;;;4986774;28;19921;-63
2022/10/19 08:47:40;;;;;;;;;;;;;;;;;;4985008;28;21814;-62
2022/10/19 08:50:06;;;;;;;;;;;;;;;;;;4986475;28;19921;-62
2022/10/19 08:52:31;;;;;;;;;;;;;;;;;;4986478;28;19921;-62
2022/10/19 08:54:56;;;;;;;;;;;;;;;;;;4985963;28;19932;-62
2022/10/19 08:57:24;;;;;;;;;;;;;;;;;;4987769;28;19921;-62
2022/10/19 08:59:49;;;;;;;;;;;;;;;;;;4984339;28;19972;-64
2022/10/19 09:02:30;;;;;;;;;;;;;;;;;;4987693;28;20451;-63
2022/10/19 09:04:56;;;;;;;;;;;;;;;;;;4986772;28;19922;-62
2022/10/19 09:07:22;;;;;;;;;;;;;;;;;;4984851;28;19999;-62
2022/10/19 09:09:49;;;;;;;;;;;;;;;;;;4978995;28;20687;-62
2022/10/19 09:12:17;;;;;;;;;;;;;;;;;;4984728;28;19921;-64
2022/10/19 09:14:43;;;;;;;;;;;;;;;;;;4985436;28;19926;-62
2022/10/19 09:17:08;;;;;;;;;;;;;;;;;;4986743;28;19921;-62
2022/10/19 09:19:34;;;;;;;;;;;;;;;;;;4987580;28;19924;-62
2022/10/19 09:21:59;;;;;;;;;;;;;;;;;;4986608;28;19929;-63
2022/10/19 09:24:24;;;;;;;;;;;;;;;;;;4984080;28;20012;-62
2022/10/19 09:26:50;;;;;;;;;;;;;;;;;;4984651;28;19933;-63
2022/10/19 09:29:15;;;;;;;;;;;;;;;;;;4984524;28;20516;-63
2022/10/19 09:31:43;;;;;;;;;;;;;;;;;;4986499;28;19925;-63
2022/10/19 09:34:11;;;;;;;;;;;;;;;;;;4987818;28;19922;-64
2022/10/19 09:36:37;;;;;;;;;;;;;;;;;;4969298;28;19953;-63
2022/10/19 09:39:04;;;;;;;;;;;;;;;;;;4986597;28;19921;-63
2022/10/19 09:41:30;;;;;;;;;;;;;;;;;;4983692;28;19929;-63
2022/10/19 09:43:58;;;;;;;;;;;;;;;;;;4985509;28;19928;-63
2022/10/19 09:46:24;;;;;;;;;;;;;;;;;;4986225;28;19965;-64
2022/10/19 09:48:50;;;;;;;;;;;;;;;;;;4985732;28;20738;-63
2022/10/19 09:51:15;;;;;;;;;;;;;;;;;;4985727;28;21926;-64
2022/10/19 09:53:40;;;;;;;;;;;;;;;;;;4978554;28;19960;-63
2022/10/19 09:56:06;;;;;;;;;;;;;;;;;;4994312;28;20579;-64
2022/10/19 09:58:34;;;;;;;;;;;;;;;;;;4985990;28;20007;-63
2022/10/19 10:00:59;;;;;;;;;;;;;;;;;;4982764;28;19922;-63
2022/10/19 10:03:27;;;;;;;;;;;;;;;;;;4984853;28;20040;-65
2022/10/19 10:05:53;;;;;;;;;;;;;;;;;;4977345;28;19933;-63
2022/10/19 10:08:18;;;;;;;;;;;;;;;;;;4986457;28;19918;-63
2022/10/19 10:10:43;;;;;;;;;;;;;;;;;;4963493;28;19941;-63
2022/10/19 10:13:08;;;;;;;;;;;;;;;;;;4983611;28;20795;-64
2022/10/19 10:15:34;;;;;;;;;;;;;;;;;;4983639;28;19933;-63
2022/10/19 10:18:01;;;;;;;;;;;;;;;;;;4984852;28;20310;-63
2022/10/19 10:20:27;;;;;;;;;;;;;;;;;;4983533;28;19924;-63
2022/10/19 10:22:53;;;;;;;;;;;;;;;;;;4983980;28;19964;-64
2022/10/19 10:25:19;;;;;;;;;;;;;;;;;;4985617;28;19965;-64
2022/10/19 10:27:44;;;;;;;;;;;;;;;;;;5000296;28;20368;-66
2022/10/19 10:30:09;;;;;;;;;;;;;;;;;;4984217;28;19917;-63
2022/10/19 10:32:34;;;;;;;;;;;;;;;;;;4985013;28;20560;-63
2022/10/19 10:35:00;;;;;;;;;;;;;;;;;;4984587;28;19921;-62
2022/10/19 10:37:30;;;;;;;;;;;;;;;;;;4984610;28;20012;-63
2022/10/19 10:39:56;;;;;;;;;;;;;;;;;;4983897;28;19921;-63
2022/10/19 10:42:21;;;;;;;;;;;;;;;;;;4984997;28;20036;-63
2022/10/19 10:44:46;;;;;;;;;;;;;;;;;;4985566;28;19917;-63
2022/10/19 10:47:12;;;;;;;;;;;;;;;;;;4983797;28;19972;-64
2022/10/19 10:49:41;;;;;;;;;;;;;;;;;;4986006;28;19918;-63
2022/10/19 10:52:06;;;;;;;;;;;;;;;;;;4979077;28;19921;-63
2022/10/19 10:54:34;;;;;;;;;;;;;;;;;;4985699;28;19933;-62
2022/10/19 10:56:59;;;;;;;;;;;;;;;;;;4983716;28;19925;-64
2022/10/19 10:59:27;;;;;;;;;;;;;;;;;;4986542;28;20389;-60
2022/10/19 11:01:52;;;;;;;;;;;;;;;;;;4970497;28;20384;-63
2022/10/19 11:04:18;;;;;;;;;;;;;;;;;;4987873;28;19955;-62
2022/10/19 11:06:43;;;;;;;;;;;;;;;;;;4981385;28;20889;-65
2022/10/19 11:09:10;;;;;;;;;;;;;;;;;;4988538;28;19922;-63
2022/10/19 11:14:19;;;;;;;;;;;;;;;;;;4989085;28;20896;-63
2022/10/19 11:16:47;;;;;;;;;;;;;;;;;;4991284;28;19925;-61
2022/10/19 11:19:12;;;;;;;;;;;;;;;;;;4988646;28;20004;-64
2022/10/19 11:21:40;;;;;;;;;;;;;;;;;;4964495;28;19913;-62
2022/10/19 11:24:08;;;;;;;;;;;;;;;;;;4989048;28;19924;-65
2022/10/19 11:26:35;;;;;;;;;;;;;;;;;;4986586;28;21436;-63
2022/10/19 11:29:01;;;;;;;;;;;;;;;;;;4987847;28;20052;-62
2022/10/19 11:31:29;;;;;;;;;;;;;;;;;;4987586;28;20509;-65
2022/10/19 11:33:54;;;;;;;;;;;;;;;;;;4978992;28;19973;-63
2022/10/19 11:36:20;;;;;;;;;;;;;;;;;;4986084;28;19922;-62
2022/10/19 11:38:45;;;;;;;;;;;;;;;;;;4986706;28;19964;-63
2022/10/19 11:41:13;;;;;;;;;;;;;;;;;;4986580;28;19921;-64
2022/10/19 11:43:38;;;;;;;;;;;;;;;;;;4987468;28;20571;-64
2022/10/19 11:46:03;;;;;;;;;;;;;;;;;;4985226;28;19952;-64
2022/10/19 11:48:29;;;;;;;;;;;;;;;;;;4988291;28;19961;-63
2022/10/19 11:50:54;;;;;;;;;;;;;;;;;;4979498;28;20004;-63
2022/10/19 11:53:19;;;;;;;;;;;;;;;;;;4980711;28;20032;-64
2022/10/19 11:55:45;;;;;;;;;;;;;;;;;;4980506;28;19969;-63
2022/10/19 11:58:10;;;;;;;;;;;;;;;;;;4986638;28;20070;-63
2022/10/19 12:00:38;;;;;;;;;;;;;;;;;;4987798;28;20316;-64
2022/10/19 12:03:04;;;;;;;;;;;;;;;;;;4981857;28;19921;-64
2022/10/19 12:05:31;;;;;;;;;;;;;;;;;;4987046;28;20008;-62
2022/10/19 12:07:57;;;;;;;;;;;;;;;;;;4988791;28;19932;-64
2022/10/19 12:10:22;;;;;;;;;;;;;;;;;;4986184;28;20574;-64
2022/10/19 12:12:49;;;;;;;;;;;;;;;;;;4979146;28;20004;-64
2022/10/19 12:15:15;;;;;;;;;;;;;;;;;;4980463;28;20503;-62
2022/10/19 12:17:41;;;;;;;;;;;;;;;;;;4990361;28;20058;-62
2022/10/19 12:20:06;;;;;;;;;;;;;;;;;;4998832;28;19928;-61
2022/10/19 12:22:32;;;;;;;;;;;;;;;;;;4972952;28;20000;-62
2022/10/19 12:25:00;;;;;;;;;;;;;;;;;;4986309;28;19933;-64
2022/10/19 12:27:27;;;;;;;;;;;;;;;;;;4977168;28;19925;-63
2022/10/19 12:29:53;;;;;;;;;;;;;;;;;;4986782;28;19952;-63
2022/10/19 12:32:19;;;;;;;;;;;;;;;;;;5000295;28;19917;-63
2022/10/19 12:34:46;;;;;;;;;;;;;;;;;;4986905;28;19932;-63
2022/10/19 12:37:14;;;;;;;;;;;;;;;;;;4984016;28;21930;-63
2022/10/19 12:39:42;;;;;;;;;;;;;;;;;;4987518;28;20028;-64
2022/10/19 12:42:09;;;;;;;;;;;;;;;;;;4985849;28;19918;-63
2022/10/19 12:44:37;;;;;;;;;;;;;;;;;;4988029;28;19921;-64
2022/10/19 12:47:05;;;;;;;;;;;;;;;;;;4986669;28;19996;-63
2022/10/19 12:49:30;;;;;;;;;;;;;;;;;;4987894;28;19982;-64
2022/10/19 12:51:56;;;;;;;;;;;;;;;;;;4985852;28;19922;-63
2022/10/19 12:54:24;;;;;;;;;;;;;;;;;;4970959;28;20027;-63
2022/10/19 12:56:49;;;;;;;;;;;;;;;;;;4984548;28;20450;-65
2022/10/19 12:59:15;;;;;;;;;;;;;;;;;;4980765;28;19921;-63
2022/10/19 13:01:42;;;;;;;;;;;;;;;;;;4979217;28;19967;-62
2022/10/19 13:04:08;;;;;;;;;;;;;;;;;;4980007;28;19928;-63
2022/10/19 13:06:33;;;;;;;;;;;;;;;;;;4978000;28;19917;-63
2022/10/19 13:08:58;;;;;;;;;;;;;;;;;;4985178;28;20389;-62
2022/10/19 13:11:24;;;;;;;;;;;;;;;;;;4988517;28;19917;-64
2022/10/19 13:13:50;;;;;;;;;;;;;;;;;;4984931;28;20349;-63
2022/10/19 13:16:15;;;;;;;;;;;;;;;;;;4983454;28;19933;-64
2022/10/19 13:18:40;;;;;;;;;;;;;;;;;;4986343;28;19923;-63
2022/10/19 13:21:06;;;;;;;;;;;;;;;;;;4986218;28;19917;-64
2022/10/19 13:23:32;;;;;;;;;;;;;;;;;;4985265;28;20610;-62
2022/10/19 13:25:57;;;;;;;;;;;;;;;;;;4979168;28;19928;-63
2022/10/19 13:28:22;;;;;;;;;;;;;;;;;;4984177;28;20688;-63
2022/10/19 13:30:48;;;;;;;;;;;;;;;;;;4987286;28;19925;-62
2022/10/19 13:33:13;;;;;;;;;;;;;;;;;;4984747;28;19933;-63
2022/10/19 13:35:39;;;;;;;;;;;;;;;;;;4985298;28;19917;-63
2022/10/19 13:38:07;;;;;;;;;;;;;;;;;;4971623;28;19963;-64
2022/10/19 13:40:32;;;;;;;;;;;;;;;;;;4983868;28;19922;-64
2022/10/19 13:42:57;;;;;;;;;;;;;;;;;;4982712;28;19921;-64
2022/10/19 13:45:23;;;;;;;;;;;;;;;;;;4984564;28;20530;-64
2022/10/19 13:47:49;;;;;;;;;;;;;;;;;;4986298;28;20534;-63
2022/10/19 13:50:14;;;;;;;;;;;;;;;;;;4982943;28;20056;-64
2022/10/19 13:52:42;;;;;;;;;;;;;;;;;;4979043;28;19921;-64
2022/10/19 13:55:07;;;;;;;;;;;;;;;;;;4984129;28;19988;-65
2022/10/19 13:57:37;;;;;;;;;;;;;;;;;;4986203;28;19921;-65
2022/10/19 14:00:06;;;;;;;;;;;;;;;;;;4979723;28;19921;-64
2022/10/19 14:02:31;;;;;;;;;;;;;;;;;;4970365;28;20459;-65
2022/10/19 14:04:56;;;;;;;;;;;;;;;;;;4984446;28;19921;-64
2022/10/19 14:07:24;;;;;;;;;;;;;;;;;;4982817;28;19921;-64
2022/10/19 14:09:52;;;;;;;;;;;;;;;;;;4984765;28;20593;-63
2022/10/19 14:15:36;;;;;;;;;;;;;;;;;;4985506;28;20140;-63
2022/10/19 14:18:06;;;;;;;;;;;;;;;;;;4979333;28;19922;-64
2022/10/19 14:20:32;;;;;;;;;;;;;;;;;;4982356;28;19945;-65
2022/10/19 14:22:57;;;;;;;;;;;;;;;;;;4985094;28;19921;-64
2022/10/19 14:25:23;;;;;;;;;;;;;;;;;;4970491;28;19918;-64
2022/10/19 14:27:48;;;;;;;;;;;;;;;;;;4982046;28;19929;-63
2022/10/19 14:30:14;;;;;;;;;;;;;;;;;;4984237;28;19925;-64
2022/10/19 14:32:39;;;;;;;;;;;;;;;;;;4986078;28;19926;-62
2022/10/19 14:35:05;;;;;;;;;;;;;;;;;;4974071;28;20238;-62
2022/10/19 14:37:31;;;;;;;;;;;;;;;;;;4987561;28;19929;-62
2022/10/19 14:39:57;;;;;;;;;;;;;;;;;;4983270;28;19917;-62
2022/10/19 14:42:22;;;;;;;;;;;;;;;;;;4987967;28;19922;-62
2022/10/19 14:44:47;;;;;;;;;;;;;;;;;;4989849;28;20008;-63
2022/10/19 14:47:13;;;;;;;;;;;;;;;;;;4987776;28;19956;-61
2022/10/19 14:49:38;;;;;;;;;;;;;;;;;;4982696;28;19948;-62
2022/10/19 14:52:04;;;;;;;;;;;;;;;;;;4984870;28;19928;-65
2022/10/19 14:54:29;;;;;;;;;;;;;;;;;;4983660;28;19940;-64
2022/10/19 14:56:55;;;;;;;;;;;;;;;;;;4989150;28;19932;-63
2022/10/19 14:59:21;;;;;;;;;;;;;;;;;;4985972;28;19969;-64
2022/10/19 15:04:33;;;;;;;;;;;;;;;;;;4985029;28;19922;-64
2022/10/19 15:06:59;;;;;;;;;;;;;;;;;;4981558;28;19932;-63
2022/10/19 15:09:24;;;;;;;;;;;;;;;;;;4987266;28;19917;-63
2022/10/19 15:11:52;;;;;;;;;;;;;;;;;;4985549;28;19980;-63
2022/10/19 15:14:17;;;;;;;;;;;;;;;;;;4980234;28;19929;-64
2022/10/19 15:16:42;;;;;;;;;;;;;;;;;;4984666;28;19928;-63
2022/10/19 15:19:10;;;;;;;;;;;;;;;;;;4973650;28;20055;-63
2022/10/19 15:21:38;;;;;;;;;;;;;;;;;;4986589;28;19928;-63
2022/10/19 15:24:04;;;;;;;;;;;;;;;;;;4987267;28;19924;-64
2022/10/19 15:26:32;;;;;;;;;;;;;;;;;;4987393;28;19933;-64
2022/10/19 15:28:57;;;;;;;;;;;;;;;;;;4980755;28;19925;-63
2022/10/19 15:31:23;;;;;;;;;;;;;;;;;;5001640;28;20477;-62
2022/10/19 15:33:48;;;;;;;;;;;;;;;;;;4989429;28;19984;-64
2022/10/19 15:36:18;;;;;;;;;;;;;;;;;;4985454;28;19928;-63
2022/10/19 15:38:43;;;;;;;;;;;;;;;;;;4986960;28;19928;-64
2022/10/19 15:41:09;;;;;;;;;;;;;;;;;;4985690;28;19925;-63
2022/10/19 15:43:34;;;;;;;;;;;;;;;;;;4980467;28;20431;-63
2022/10/19 15:46:00;;;;;;;;;;;;;;;;;;4987177;28;19941;-64
2022/10/19 15:48:26;;;;;;;;;;;;;;;;;;4983993;28;20661;-62
2022/10/19 15:50:51;;;;;;;;;;;;;;;;;;4986483;28;20649;-62
2022/10/19 15:53:16;;;;;;;;;;;;;;;;;;4985476;28;19917;-63
2022/10/19 15:55:42;;;;;;;;;;;;;;;;;;4987182;28;20011;-63
2022/10/19 15:58:07;;;;;;;;;;;;;;;;;;4988344;28;20064;-63
2022/10/19 16:00:32;;;;;;;;;;;;;;;;;;4979869;28;19922;-63
2022/10/19 16:02:58;;;;;;;;;;;;;;;;;;4988091;28;20963;-63
2022/10/19 16:05:23;;;;;;;;;;;;;;;;;;4966136;28;19922;-63
2022/10/19 16:07:49;;;;;;;;;;;;;;;;;;4985336;28;19922;-65
2022/10/19 16:10:14;;;;;;;;;;;;;;;;;;4980134;28;19925;-63
2022/10/19 16:12:39;;;;;;;;;;;;;;;;;;4986461;28;21677;-63
2022/10/19 16:15:05;;;;;;;;;;;;;;;;;;4983904;28;20072;-63
2022/10/19 16:17:30;;;;;;;;;;;;;;;;;;4985293;28;19918;-65
2022/10/19 16:19:55;;;;;;;;;;;;;;;;;;4987470;28;20047;-63
2022/10/19 16:22:21;;;;;;;;;;;;;;;;;;4987910;28;20373;-63
2022/10/19 16:24:46;;;;;;;;;;;;;;;;;;4985922;28;20060;-64
2022/10/19 16:27:13;;;;;;;;;;;;;;;;;;4987647;28;19925;-62
2022/10/19 16:29:39;;;;;;;;;;;;;;;;;;4984504;28;20277;-63
2022/10/19 16:32:07;;;;;;;;;;;;;;;;;;4984932;28;19931;-66
2022/10/19 16:34:32;;;;;;;;;;;;;;;;;;4986418;28;20015;-65
2022/10/19 16:36:57;;;;;;;;;;;;;;;;;;4962880;28;20050;-66
2022/10/19 16:39:24;;;;;;;;;;;;;;;;;;4984223;28;19981;-64
2022/10/19 16:41:49;;;;;;;;;;;;;;;;;;4983790;28;19918;-64
2022/10/19 16:44:15;;;;;;;;;;;;;;;;;;4985217;28;19965;-64
2022/10/19 16:46:42;;;;;;;;;;;;;;;;;;4986838;28;20475;-64
2022/10/19 16:49:08;;;;;;;;;;;;;;;;;;4984412;28;19925;-64
2022/10/19 16:51:34;;;;;;;;;;;;;;;;;;4985110;28;19922;-64